sensor_id;sensor_type;location;lat;lon;timestamp;pressure;altitude;pressure_sealevel;temperature;humidity
8501;BME280;4288;48.484;10.024;2023-05-01T00:02:04;95546.00;;;19.05;60.99
8501;BME280;4288;48.484;10.024;2023-05-01T00:04:33;95534.84;;;19.03;60.78
8501;BME280;4288;48.484;10.024;2023-05-01T00:07:00;95533.31;;;19.02;60.27
8501;BME280;4288;48.484;10.024;2023-05-01T00:09:28;95531.03;;;19.01;60.79
8501;BME280;4288;48.484;10.024;2023-05-01T00:11:57;95537.22;;;19.01;60.37
8501;BME280;4288;48.484;10.024;2023-05-01T00:14:24;95536.47;;;19.01;60.56
8501;BME280;4288;48.484;10.024;2023-05-01T00:16:53;95533.41;;;18.99;60.79
8501;BME280;4288;48.484;10.024;2023-05-01T00:19:20;95532.66;;;18.98;60.85
8501;BME280;4288;48.484;10.024;2023-05-01T00:21:48;95521.81;;;18.98;60.75
8501;BME280;4288;48.484;10.024;2023-05-01T00:24:17;95528.00;;;18.99;60.38
8501;BME280;4288;48.484;10.024;2023-05-01T00:26:44;95515.66;;;18.98;60.65
8501;BME280;4288;48.484;10.024;2023-05-01T00:29:12;95514.91;;;18.97;61.00
8501;BME280;4288;48.484;10.024;2023-05-01T00:31:39;95506.44;;;18.95;61.10
8501;BME280;4288;48.484;10.024;2023-05-01T00:34:09;95511.09;;;18.95;60.60
8501;BME280;4288;48.484;10.024;2023-05-01T00:36:36;95506.88;;;18.94;60.98
8501;BME280;4288;48.484;10.024;2023-05-01T00:39:04;95496.47;;;18.92;60.83
8501;BME280;4288;48.484;10.024;2023-05-01T00:41:32;95495.72;;;18.92;60.99
8501;BME280;4288;48.484;10.024;2023-05-01T00:44:00;95497.66;;;18.91;61.15
8501;BME280;4288;48.484;10.024;2023-05-01T00:46:27;95500.38;;;18.91;61.31
8501;BME280;4288;48.484;10.024;2023-05-01T00:48:56;95495.41;;;18.90;60.79
8501;BME280;4288;48.484;10.024;2023-05-01T00:51:25;95500.81;;;18.90;60.55
8501;BME280;4288;48.484;10.024;2023-05-01T00:53:55;95499.28;;;18.89;60.38
8501;BME280;4288;48.484;10.024;2023-05-01T00:56:25;95486.94;;;18.88;61.20
8501;BME280;4288;48.484;10.024;2023-05-01T00:58:53;95493.53;;;18.87;61.02
8501;BME280;4288;48.484;10.024;2023-05-01T01:01:22;95485.41;;;18.87;60.85
8501;BME280;4288;48.484;10.024;2023-05-01T01:03:50;95480.44;;;18.85;61.08
8501;BME280;4288;48.484;10.024;2023-05-01T01:06:26;95476.19;;;18.84;60.48
8501;BME280;4288;48.484;10.024;2023-05-01T01:09:03;95476.19;;;18.84;60.59
8501;BME280;4288;48.484;10.024;2023-05-01T01:11:37;95471.22;;;18.83;60.70
8501;BME280;4288;48.484;10.024;2023-05-01T01:14:11;95468.97;;;18.81;60.82
8501;BME280;4288;48.484;10.024;2023-05-01T01:16:47;95464.31;;;18.82;60.87
8501;BME280;4288;48.484;10.024;2023-05-01T01:19:45;95459.34;;;18.80;60.71
8501;BME280;4288;48.484;10.024;2023-05-01T01:22:21;95462.44;;;18.79;61.46
8501;BME280;4288;48.484;10.024;2023-05-01T01:25:10;95462.88;;;18.77;61.00
8501;BME280;4288;48.484;10.024;2023-05-01T01:28:03;95465.59;;;18.77;61.26
8501;BME280;4288;48.484;10.024;2023-05-01T01:31:02;95468.31;;;18.77;60.57
8501;BME280;4288;48.484;10.024;2023-05-01T01:33:53;95467.53;;;18.77;60.47
8501;BME280;4288;48.484;10.024;2023-05-01T01:36:39;95469.19;;;18.74;60.54
8501;BME280;4288;48.484;10.024;2023-05-01T01:39:12;95475.34;;;18.75;61.04
8501;BME280;4288;48.484;10.024;2023-05-01T01:41:44;95460.28;;;18.74;61.02
8501;BME280;4288;48.484;10.024;2023-05-01T01:44:18;95471.13;;;18.74;60.66
8501;BME280;4288;48.484;10.024;2023-05-01T01:46:48;95466.16;;;18.72;61.08
8501;BME280;4288;48.484;10.024;2023-05-01T01:49:20;95470.81;;;18.72;60.87
8501;BME280;4288;48.484;10.024;2023-05-01T01:51:50;95464.63;;;18.71;60.67
8501;BME280;4288;48.484;10.024;2023-05-01T01:54:25;95457.69;;;18.70;60.80
8501;BME280;4288;48.484;10.024;2023-05-01T01:56:56;95459.66;;;18.70;61.14
8501;BME280;4288;48.484;10.024;2023-05-01T01:59:29;95448.06;;;18.69;60.94
8501;BME280;4288;48.484;10.024;2023-05-01T02:01:58;95447.28;;;18.68;60.79
8501;BME280;4288;48.484;10.024;2023-05-01T02:04:29;95446.53;;;18.68;60.41
8501;BME280;4288;48.484;10.024;2023-05-01T02:06:58;95445.00;;;18.67;60.51
8501;BME280;4288;48.484;10.024;2023-05-01T02:09:28;95445.44;;;18.65;60.42
8501;BME280;4288;48.484;10.024;2023-05-01T02:11:57;95443.50;;;18.66;60.90
8501;BME280;4288;48.484;10.024;2023-05-01T02:14:26;95436.56;;;18.65;60.21
8501;BME280;4288;48.484;10.024;2023-05-01T02:16:54;95437.78;;;18.64;60.80
8501;BME280;4288;48.484;10.024;2023-05-01T02:19:24;95440.91;;;18.62;60.66
8501;BME280;4288;48.484;10.024;2023-05-01T02:21:56;95434.75;;;18.62;60.49
8501;BME280;4288;48.484;10.024;2023-05-01T02:24:24;95432.03;;;18.62;61.01
8501;BME280;4288;48.484;10.024;2023-05-01T02:26:55;95429.31;;;18.62;60.88
8501;BME280;4288;48.484;10.024;2023-05-01T02:29:24;95435.91;;;18.61;60.91
8501;BME280;4288;48.484;10.024;2023-05-01T02:31:53;95427.78;;;18.61;60.81
8501;BME280;4288;48.484;10.024;2023-05-01T02:34:20;95425.53;;;18.59;60.84
8501;BME280;4288;48.484;10.024;2023-05-01T02:36:48;95426.72;;;18.58;60.80
8501;BME280;4288;48.484;10.024;2023-05-01T02:39:17;95421.72;;;18.57;60.81
8501;BME280;4288;48.484;10.024;2023-05-01T02:41:45;95419.47;;;18.55;60.58
8501;BME280;4288;48.484;10.024;2023-05-01T02:44:15;95424.09;;;18.55;60.94
8501;BME280;4288;48.484;10.024;2023-05-01T02:46:45;95419.47;;;18.55;61.21
8501;BME280;4288;48.484;10.024;2023-05-01T02:49:14;95414.50;;;18.54;60.53
8501;BME280;4288;48.484;10.024;2023-05-01T02:51:43;95416.44;;;18.53;60.71
8501;BME280;4288;48.484;10.024;2023-05-01T02:54:12;95415.66;;;18.53;60.54
8501;BME280;4288;48.484;10.024;2023-05-01T02:56:42;95410.25;;;18.53;61.18
8501;BME280;4288;48.484;10.024;2023-05-01T02:59:09;95407.66;;;18.49;61.16
8501;BME280;4288;48.484;10.024;2023-05-01T03:01:37;95407.22;;;18.51;60.32
8501;BME280;4288;48.484;10.024;2023-05-01T03:04:05;95410.38;;;18.49;60.55
8501;BME280;4288;48.484;10.024;2023-05-01T03:06:32;95404.22;;;18.49;60.04
8501;BME280;4288;48.484;10.024;2023-05-01T03:08:59;95403.44;;;18.48;60.71
8501;BME280;4288;48.484;10.024;2023-05-01T03:11:28;95401.91;;;18.47;60.73
8501;BME280;4288;48.484;10.024;2023-05-01T03:13:56;95402.69;;;18.48;60.52
8501;BME280;4288;48.484;10.024;2023-05-01T03:16:24;95400.41;;;18.46;61.15
8501;BME280;4288;48.484;10.024;2023-05-01T03:18:51;95396.94;;;18.46;60.90
8501;BME280;4288;48.484;10.024;2023-05-01T03:21:19;95396.94;;;18.46;61.22
8501;BME280;4288;48.484;10.024;2023-05-01T03:23:46;95390.44;;;18.43;60.84
8501;BME280;4288;48.484;10.024;2023-05-01T03:26:14;95391.19;;;18.44;60.91
8501;BME280;4288;48.484;10.024;2023-05-01T03:28:41;95391.19;;;18.44;61.16
8501;BME280;4288;48.484;10.024;2023-05-01T03:31:10;95394.34;;;18.42;60.75
8501;BME280;4288;48.484;10.024;2023-05-01T03:33:37;95394.75;;;18.41;60.37
8501;BME280;4288;48.484;10.024;2023-05-01T03:36:05;95389.34;;;18.41;60.42
8501;BME280;4288;48.484;10.024;2023-05-01T03:38:33;95380.47;;;18.40;60.51
8501;BME280;4288;48.484;10.024;2023-05-01T03:41:00;95378.94;;;18.39;60.63
8501;BME280;4288;48.484;10.024;2023-05-01T03:43:30;95378.19;;;18.39;60.25
8501;BME280;4288;48.484;10.024;2023-05-01T03:45:58;95372.03;;;18.38;60.65
8501;BME280;4288;48.484;10.024;2023-05-01T03:48:26;95375.91;;;18.37;61.16
8501;BME280;4288;48.484;10.024;2023-05-01T03:50:54;95373.19;;;18.37;60.75
8501;BME280;4288;48.484;10.024;2023-05-01T03:53:23;95374.41;;;18.36;59.95
8501;BME280;4288;48.484;10.024;2023-05-01T03:55:50;95381.31;;;18.37;60.42
8501;BME280;4288;48.484;10.024;2023-05-01T03:58:18;95379.03;;;18.36;60.27
8501;BME280;4288;48.484;10.024;2023-05-01T04:00:47;95372.13;;;18.35;59.81
8501;BME280;4288;48.484;10.024;2023-05-01T04:03:15;95373.31;;;18.34;60.77
8501;BME280;4288;48.484;10.024;2023-05-01T04:05:44;95376.00;;;18.34;61.11
8501;BME280;4288;48.484;10.024;2023-05-01T04:08:12;95373.31;;;18.34;60.39
8501;BME280;4288;48.484;10.024;2023-05-01T04:10:39;95372.56;;;18.33;60.72
8501;BME280;4288;48.484;10.024;2023-05-01T04:13:07;95376.88;;;18.31;60.52
8501;BME280;4288;48.484;10.024;2023-05-01T04:15:34;95378.41;;;18.32;60.59
8501;BME280;4288;48.484;10.024;2023-05-01T04:18:01;95380.78;;;18.30;60.54
8501;BME280;4288;48.484;10.024;2023-05-01T04:20:29;95386.94;;;18.30;60.68
8501;BME280;4288;48.484;10.024;2023-05-01T04:22:57;95380.78;;;18.30;59.35
8501;BME280;4288;48.484;10.024;2023-05-01T04:25:25;95379.28;;;18.29;59.60
8501;BME280;4288;48.484;10.024;2023-05-01T04:27:52;95383.91;;;18.28;60.59
8501;BME280;4288;48.484;10.024;2023-05-01T04:30:20;95383.16;;;18.28;60.30
8501;BME280;4288;48.484;10.024;2023-05-01T04:32:47;95387.06;;;18.27;60.97
8501;BME280;4288;48.484;10.024;2023-05-01T04:35:14;95383.25;;;18.24;60.07
8501;BME280;4288;48.484;10.024;2023-05-01T04:37:42;95384.03;;;18.25;60.83
8501;BME280;4288;48.484;10.024;2023-05-01T04:40:12;95389.44;;;18.25;60.42
8501;BME280;4288;48.484;10.024;2023-05-01T04:42:40;95388.25;;;18.26;59.34
8501;BME280;4288;48.484;10.024;2023-05-01T04:45:07;95387.91;;;18.24;60.58
8501;BME280;4288;48.484;10.024;2023-05-01T04:47:35;95392.59;;;18.23;60.18
8501;BME280;4288;48.484;10.024;2023-05-01T04:50:03;95392.25;;;18.21;60.61
8501;BME280;4288;48.484;10.024;2023-05-01T04:52:30;95398.41;;;18.22;60.58
8501;BME280;4288;48.484;10.024;2023-05-01T04:54:57;95398.06;;;18.20;60.05
8501;BME280;4288;48.484;10.024;2023-05-01T04:57:26;95401.53;;;18.20;59.50
8501;BME280;4288;48.484;10.024;2023-05-01T04:59:53;95395.38;;;18.20;60.22
8501;BME280;4288;48.484;10.024;2023-05-01T05:02:21;95401.97;;;18.19;60.49
8501;BME280;4288;48.484;10.024;2023-05-01T05:04:48;95395.06;;;18.18;60.16
8501;BME280;4288;48.484;10.024;2023-05-01T05:07:18;95400.78;;;18.20;60.21
8501;BME280;4288;48.484;10.024;2023-05-01T05:09:46;95403.19;;;18.18;59.94
8501;BME280;4288;48.484;10.024;2023-05-01T05:12:13;95403.19;;;18.18;60.62
8501;BME280;4288;48.484;10.024;2023-05-01T05:14:42;95396.25;;;18.17;59.88
8501;BME280;4288;48.484;10.024;2023-05-01T05:17:10;95394.09;;;18.12;59.98
8501;BME280;4288;48.484;10.024;2023-05-01T05:19:37;95397.44;;;18.16;60.76
8501;BME280;4288;48.484;10.024;2023-05-01T05:22:04;95398.63;;;18.15;60.08
8501;BME280;4288;48.484;10.024;2023-05-01T05:24:32;95400.56;;;18.14;60.12
8501;BME280;4288;48.484;10.024;2023-05-01T05:26:59;95402.53;;;18.14;59.72
8501;BME280;4288;48.484;10.024;2023-05-01T05:29:27;95397.13;;;18.14;60.58
8501;BME280;4288;48.484;10.024;2023-05-01T05:31:56;95394.41;;;18.14;59.83
8501;BME280;4288;48.484;10.024;2023-05-01T05:34:24;95396.34;;;18.13;59.23
8501;BME280;4288;48.484;10.024;2023-05-01T05:36:52;95395.59;;;18.13;59.99
8501;BME280;4288;48.484;10.024;2023-05-01T05:39:20;95398.72;;;18.11;59.93
8501;BME280;4288;48.484;10.024;2023-05-01T05:41:48;95402.19;;;18.12;60.74
8501;BME280;4288;48.484;10.024;2023-05-01T05:44:17;95406.84;;;18.11;60.24
8501;BME280;4288;48.484;10.024;2023-05-01T05:46:44;95397.19;;;18.10;59.78
8501;BME280;4288;48.484;10.024;2023-05-01T05:49:14;95406.50;;;18.09;60.51
8501;BME280;4288;48.484;10.024;2023-05-01T05:51:41;95409.22;;;18.09;60.02
8501;BME280;4288;48.484;10.024;2023-05-01T05:54:08;95406.97;;;18.08;59.75
8501;BME280;4288;48.484;10.024;2023-05-01T05:56:36;95407.69;;;18.08;60.43
8501;BME280;4288;48.484;10.024;2023-05-01T05:59:03;95407.69;;;18.08;59.76
8501;BME280;4288;48.484;10.024;2023-05-01T06:01:31;95403.47;;;18.07;60.50
8501;BME280;4288;48.484;10.024;2023-05-01T06:03:59;95403.91;;;18.06;60.56
8501;BME280;4288;48.484;10.024;2023-05-01T06:06:27;95402.72;;;18.07;59.54
8501;BME280;4288;48.484;10.024;2023-05-01T06:08:55;95405.84;;;18.05;60.04
8501;BME280;4288;48.484;10.024;2023-05-01T06:11:22;95405.84;;;18.05;62.39
8501;BME280;4288;48.484;10.024;2023-05-01T06:13:49;95403.91;;;18.06;60.78
8501;BME280;4288;48.484;10.024;2023-05-01T06:16:17;95403.91;;;18.06;61.31
8501;BME280;4288;48.484;10.024;2023-05-01T06:18:44;95401.22;;;18.06;61.47
8501;BME280;4288;48.484;10.024;2023-05-01T06:21:12;95396.97;;;18.05;61.28
8501;BME280;4288;48.484;10.024;2023-05-01T06:23:41;95402.38;;;18.05;62.17
8501;BME280;4288;48.484;10.024;2023-05-01T06:26:08;95397.75;;;18.05;63.36
8501;BME280;4288;48.484;10.024;2023-05-01T06:28:35;95397.75;;;18.05;62.35
8501;BME280;4288;48.484;10.024;2023-05-01T06:31:03;95399.25;;;18.06;63.52
8501;BME280;4288;48.484;10.024;2023-05-01T06:33:30;95395.38;;;18.07;63.43
8501;BME280;4288;48.484;10.024;2023-05-01T06:35:57;95398.84;;;18.08;63.60
8501;BME280;4288;48.484;10.024;2023-05-01T06:38:25;95400.63;;;17.86;61.83
8501;BME280;4288;48.484;10.024;2023-05-01T06:40:54;95401.28;;;17.90;62.36
8501;BME280;4288;48.484;10.024;2023-05-01T06:43:21;95403.38;;;17.98;62.02
8501;BME280;4288;48.484;10.024;2023-05-01T06:45:53;95403.69;;;18.00;61.06
8501;BME280;4288;48.484;10.024;2023-05-01T06:48:20;95397.41;;;18.03;62.69
8501;BME280;4288;48.484;10.024;2023-05-01T06:50:47;95411.69;;;18.04;62.22
8501;BME280;4288;48.484;10.024;2023-05-01T06:53:15;95412.53;;;17.59;59.71
8501;BME280;4288;48.484;10.024;2023-05-01T06:55:42;95412.19;;;17.13;59.38
8501;BME280;4288;48.484;10.024;2023-05-01T06:58:11;95412.78;;;17.04;58.56
8501;BME280;4288;48.484;10.024;2023-05-01T07:00:38;95412.63;;;16.95;58.41
8501;BME280;4288;48.484;10.024;2023-05-01T07:03:06;95404.69;;;16.88;58.42
8501;BME280;4288;48.484;10.024;2023-05-01T07:05:33;95409.94;;;16.79;58.58
8501;BME280;4288;48.484;10.024;2023-05-01T07:08:00;95414.66;;;16.75;58.95
8501;BME280;4288;48.484;10.024;2023-05-01T07:10:28;95419.03;;;17.01;58.75
8501;BME280;4288;48.484;10.024;2023-05-01T07:12:55;95409.78;;;17.31;58.28
8501;BME280;4288;48.484;10.024;2023-05-01T07:15:24;95420.16;;;17.48;57.69
8501;BME280;4288;48.484;10.024;2023-05-01T07:17:51;95423.00;;;17.57;56.68
8501;BME280;4288;48.484;10.024;2023-05-01T07:20:21;95412.78;;;17.65;57.47
8501;BME280;4288;48.484;10.024;2023-05-01T07:22:48;95408.06;;;17.69;56.95
8501;BME280;4288;48.484;10.024;2023-05-01T07:25:16;95410.41;;;17.67;59.11
8501;BME280;4288;48.484;10.024;2023-05-01T07:27:43;95402.44;;;17.47;58.59
8501;BME280;4288;48.484;10.024;2023-05-01T07:30:11;95406.91;;;17.54;58.18
8501;BME280;4288;48.484;10.024;2023-05-01T07:32:39;95417.75;;;17.66;58.45
8501;BME280;4288;48.484;10.024;2023-05-01T07:35:07;95410.09;;;17.65;60.22
8501;BME280;4288;48.484;10.024;2023-05-01T07:37:35;95416.88;;;17.57;60.77
8501;BME280;4288;48.484;10.024;2023-05-01T07:40:03;95420.31;;;17.57;59.21
8501;BME280;4288;48.484;10.024;2023-05-01T07:42:30;95412.25;;;17.70;57.66
8501;BME280;4288;48.484;10.024;2023-05-01T07:44:57;95414.09;;;17.73;59.11
8501;BME280;4288;48.484;10.024;2023-05-01T07:47:25;95412.06;;;17.77;57.57
8501;BME280;4288;48.484;10.024;2023-05-01T07:49:54;95410.44;;;17.79;57.62
8501;BME280;4288;48.484;10.024;2023-05-01T07:52:22;95412.72;;;17.81;57.10
8501;BME280;4288;48.484;10.024;2023-05-01T07:54:50;95412.31;;;17.83;59.44
8501;BME280;4288;48.484;10.024;2023-05-01T07:57:17;95408.41;;;17.84;57.39
8501;BME280;4288;48.484;10.024;2023-05-01T07:59:44;95408.72;;;17.86;57.10
8501;BME280;4288;48.484;10.024;2023-05-01T08:02:12;95411.00;;;17.87;56.61
8501;BME280;4288;48.484;10.024;2023-05-01T08:04:40;95415.25;;;17.88;57.13
8501;BME280;4288;48.484;10.024;2023-05-01T08:07:09;95412.09;;;17.90;57.50
8501;BME280;4288;48.484;10.024;2023-05-01T08:09:36;95411.66;;;17.91;57.43
8501;BME280;4288;48.484;10.024;2023-05-01T08:12:03;95415.91;;;17.92;56.96
8501;BME280;4288;48.484;10.024;2023-05-01T08:14:31;95423.56;;;17.94;56.93
8501;BME280;4288;48.484;10.024;2023-05-01T08:16:59;95420.09;;;17.93;57.02
8501;BME280;4288;48.484;10.024;2023-05-01T08:19:26;95409.63;;;17.95;57.23
8501;BME280;4288;48.484;10.024;2023-05-01T08:21:53;95426.63;;;17.96;57.25
8501;BME280;4288;48.484;10.024;2023-05-01T08:24:22;95426.94;;;17.98;56.66
8501;BME280;4288;48.484;10.024;2023-05-01T08:26:50;95422.72;;;17.97;56.77
8501;BME280;4288;48.484;10.024;2023-05-01T08:29:17;95425.00;;;17.98;57.13
8501;BME280;4288;48.484;10.024;2023-05-01T08:31:45;95432.69;;;18.00;56.47
8501;BME280;4288;48.484;10.024;2023-05-01T08:34:12;95426.50;;;17.99;56.41
8501;BME280;4288;48.484;10.024;2023-05-01T08:36:40;95433.44;;;18.00;56.18
8501;BME280;4288;48.484;10.024;2023-05-01T08:39:07;95429.53;;;18.01;56.28
8501;BME280;4288;48.484;10.024;2023-05-01T08:41:37;95428.38;;;18.02;56.01
8501;BME280;4288;48.484;10.024;2023-05-01T08:44:07;95425.22;;;18.04;56.64
8501;BME280;4288;48.484;10.024;2023-05-01T08:46:44;95421.75;;;18.03;56.81
8501;BME280;4288;48.484;10.024;2023-05-01T08:49:15;95423.25;;;18.04;56.84
8501;BME280;4288;48.484;10.024;2023-05-01T08:51:45;95428.25;;;18.06;56.59
8501;BME280;4288;48.484;10.024;2023-05-01T08:54:14;95419.38;;;18.05;56.64
8501;BME280;4288;48.484;10.024;2023-05-01T08:56:46;95424.34;;;18.07;56.06
8501;BME280;4288;48.484;10.024;2023-05-01T08:59:14;95425.88;;;18.08;56.21
8501;BME280;4288;48.484;10.024;2023-05-01T09:01:42;95428.91;;;18.10;57.17
8501;BME280;4288;48.484;10.024;2023-05-01T09:04:10;95423.84;;;18.12;57.16
8501;BME280;4288;48.484;10.024;2023-05-01T09:06:39;95425.34;;;18.13;56.61
8501;BME280;4288;48.484;10.024;2023-05-01T09:09:06;95419.50;;;18.14;57.10
8501;BME280;4288;48.484;10.024;2023-05-01T09:11:33;95417.88;;;18.17;58.12
8501;BME280;4288;48.484;10.024;2023-05-01T09:14:03;95420.59;;;18.17;56.94
8501;BME280;4288;48.484;10.024;2023-05-01T09:16:33;95420.91;;;18.19;57.39
8501;BME280;4288;48.484;10.024;2023-05-01T09:19:00;95421.25;;;18.21;57.47
8501;BME280;4288;48.484;10.024;2023-05-01T09:21:28;95422.00;;;18.21;57.92
8501;BME280;4288;48.484;10.024;2023-05-01T09:23:56;95414.63;;;18.22;57.51
8501;BME280;4288;48.484;10.024;2023-05-01T09:26:24;95418.88;;;18.23;57.02
8501;BME280;4288;48.484;10.024;2023-05-01T09:28:51;95420.69;;;18.26;58.22
8501;BME280;4288;48.484;10.024;2023-05-01T09:31:25;95418.00;;;18.26;57.74
8501;BME280;4288;48.484;10.024;2023-05-01T09:33:54;95420.28;;;18.27;58.32
8501;BME280;4288;48.484;10.024;2023-05-01T09:36:23;95419.84;;;18.29;57.80
8501;BME280;4288;48.484;10.024;2023-05-01T09:38:51;95429.47;;;18.30;58.00
8501;BME280;4288;48.484;10.024;2023-05-01T09:41:19;95424.84;;;18.30;57.44
8501;BME280;4288;48.484;10.024;2023-05-01T09:43:49;95417.03;;;18.32;58.85
8501;BME280;4288;48.484;10.024;2023-05-01T09:46:17;95418.56;;;18.33;59.66
8501;BME280;4288;48.484;10.024;2023-05-01T09:48:57;95415.44;;;18.35;59.21
8501;BME280;4288;48.484;10.024;2023-05-01T09:51:26;95413.78;;;18.37;60.11
8501;BME280;4288;48.484;10.024;2023-05-01T09:53:55;95413.06;;;18.37;60.33
8501;BME280;4288;48.484;10.024;2023-05-01T09:56:24;95419.97;;;18.38;59.85
8501;BME280;4288;48.484;10.024;2023-05-01T09:58:52;95416.81;;;18.39;60.13
8501;BME280;4288;48.484;10.024;2023-05-01T10:01:37;95412.50;;;18.42;60.08
8501;BME280;4288;48.484;10.024;2023-05-01T10:04:06;95409.78;;;18.42;60.58
8501;BME280;4288;48.484;10.024;2023-05-01T10:06:34;95406.69;;;18.43;61.81
8501;BME280;4288;48.484;10.024;2023-05-01T10:09:03;95402.78;;;18.44;61.27
8501;BME280;4288;48.484;10.024;2023-05-01T10:11:46;95403.13;;;18.46;61.89
8501;BME280;4288;48.484;10.024;2023-05-01T10:14:14;95403.88;;;18.47;61.58
8501;BME280;4288;48.484;10.024;2023-05-01T10:16:41;95408.09;;;18.48;61.53
8501;BME280;4288;48.484;10.024;2023-05-01T10:19:10;95405.72;;;18.50;61.61
8501;BME280;4288;48.484;10.024;2023-05-01T10:21:38;95408.28;;;18.41;60.60
8501;BME280;4288;48.484;10.024;2023-05-01T10:24:06;95402.03;;;18.44;60.49
8501;BME280;4288;48.484;10.024;2023-05-01T10:26:35;95407.66;;;18.49;61.51
8501;BME280;4288;48.484;10.024;2023-05-01T10:29:03;95409.06;;;18.54;61.80
8501;BME280;4288;48.484;10.024;2023-05-01T10:31:31;95414.81;;;18.56;62.00
8501;BME280;4288;48.484;10.024;2023-05-01T10:33:59;95413.94;;;18.59;61.09
8501;BME280;4288;48.484;10.024;2023-05-01T10:36:33;95415.03;;;18.61;59.37
8501;BME280;4288;48.484;10.024;2023-05-01T10:39:03;95411.88;;;18.63;61.83
8501;BME280;4288;48.484;10.024;2023-05-01T10:42:01;95406.06;;;18.64;60.83
8501;BME280;4288;48.484;10.024;2023-05-01T10:44:33;95409.81;;;18.67;61.30
8501;BME280;4288;48.484;10.024;2023-05-01T10:47:45;95414.38;;;18.70;62.81
8501;BME280;4288;48.484;10.024;2023-05-01T10:50:14;95401.59;;;18.71;63.81
8501;BME280;4288;48.484;10.024;2023-05-01T10:53:18;95403.88;;;18.72;62.48
8501;BME280;4288;48.484;10.024;2023-05-01T10:55:47;95408.84;;;18.74;62.85
8501;BME280;4288;48.484;10.024;2023-05-01T10:58:54;95399.53;;;18.75;65.39
8501;BME280;4288;48.484;10.024;2023-05-01T11:01:30;95399.53;;;18.75;63.31
8501;BME280;4288;48.484;10.024;2023-05-01T11:03:58;95390.22;;;18.76;64.10
8501;BME280;4288;48.484;10.024;2023-05-01T11:06:26;95391.41;;;18.75;63.33
8501;BME280;4288;48.484;10.024;2023-05-01T11:08:55;95394.88;;;18.75;63.43
8501;BME280;4288;48.484;10.024;2023-05-01T11:11:49;95389.44;;;18.75;64.40
8501;BME280;4288;48.484;10.024;2023-05-01T11:14:18;95386.31;;;18.77;63.97
8501;BME280;4288;48.484;10.024;2023-05-01T11:16:46;95381.66;;;18.77;63.40
8501;BME280;4288;48.484;10.024;2023-05-01T11:19:45;95381.66;;;18.77;63.61
8501;BME280;4288;48.484;10.024;2023-05-01T11:22:16;95375.38;;;18.80;65.24
8501;BME280;4288;48.484;10.024;2023-05-01T11:24:44;95379.16;;;18.83;64.67
8501;BME280;4288;48.484;10.024;2023-05-01T11:27:13;95369.41;;;18.85;63.49
8501;BME280;4288;48.484;10.024;2023-05-01T11:29:44;95370.16;;;18.86;62.39
8501;BME280;4288;48.484;10.024;2023-05-01T11:32:24;95378.28;;;18.86;61.77
8501;BME280;4288;48.484;10.024;2023-05-01T11:34:53;95369.72;;;18.87;62.77
8501;BME280;4288;48.484;10.024;2023-05-01T11:37:38;95366.25;;;18.87;62.54
8501;BME280;4288;48.484;10.024;2023-05-01T11:40:18;95368.19;;;18.86;62.58
8501;BME280;4288;48.484;10.024;2023-05-01T11:42:47;95369.72;;;18.87;62.57
8501;BME280;4288;48.484;10.024;2023-05-01T11:45:17;95365.41;;;18.90;64.57
8501;BME280;4288;48.484;10.024;2023-05-01T11:47:44;95365.06;;;18.88;64.98
8501;BME280;4288;48.484;10.024;2023-05-01T11:50:12;95365.81;;;18.88;64.32
8501;BME280;4288;48.484;10.024;2023-05-01T11:52:44;95362.25;;;18.91;64.00
8501;BME280;4288;48.484;10.024;2023-05-01T11:55:12;95362.13;;;18.95;63.32
8501;BME280;4288;48.484;10.024;2023-05-01T11:57:46;95359.41;;;18.95;62.18
8501;BME280;4288;48.484;10.024;2023-05-01T12:00:26;95354.75;;;18.95;63.05
8501;BME280;4288;48.484;10.024;2023-05-01T12:02:56;95360.06;;;18.99;63.75
8501;BME280;4288;48.484;10.024;2023-05-01T12:05:24;95346.84;;;19.01;63.77
8501;BME280;4288;48.484;10.024;2023-05-01T12:08:08;95353.97;;;19.07;68.53
8501;BME280;4288;48.484;10.024;2023-05-01T12:10:37;95354.41;;;19.06;66.62
8501;BME280;4288;48.484;10.024;2023-05-01T12:13:06;95351.63;;;18.97;64.83
8501;BME280;4288;48.484;10.024;2023-05-01T12:15:36;95354.00;;;18.95;63.58
8501;BME280;4288;48.484;10.024;2023-05-01T12:18:05;95354.44;;;18.93;63.36
8501;BME280;4288;48.484;10.024;2023-05-01T12:20:37;95346.75;;;18.92;63.72
8501;BME280;4288;48.484;10.024;2023-05-01T12:23:05;95346.75;;;18.92;64.62
8501;BME280;4288;48.484;10.024;2023-05-01T12:25:34;95345.22;;;18.91;63.94
8501;BME280;4288;48.484;10.024;2023-05-01T12:28:02;95348.72;;;18.91;64.79
8501;BME280;4288;48.484;10.024;2023-05-01T12:30:30;95354.13;;;18.91;64.72
8501;BME280;4288;48.484;10.024;2023-05-01T12:32:59;95353.34;;;18.91;64.68
8501;BME280;4288;48.484;10.024;2023-05-01T12:35:34;95349.69;;;18.85;63.05
8501;BME280;4288;48.484;10.024;2023-05-01T12:38:09;95351.22;;;18.86;62.34
8501;BME280;4288;48.484;10.024;2023-05-01T12:40:38;95354.25;;;18.88;62.78
8501;BME280;4288;48.484;10.024;2023-05-01T12:43:06;95353.47;;;18.87;63.19
8501;BME280;4288;48.484;10.024;2023-05-01T12:45:38;95350.44;;;18.85;61.32
8501;BME280;4288;48.484;10.024;2023-05-01T12:48:11;95347.75;;;18.85;61.46
8501;BME280;4288;48.484;10.024;2023-05-01T12:50:40;95342.31;;;18.85;61.57
8501;BME280;4288;48.484;10.024;2023-05-01T12:53:08;95349.25;;;18.86;61.88
8501;BME280;4288;48.484;10.024;2023-05-01T12:55:44;95338.41;;;18.86;61.85
8501;BME280;4288;48.484;10.024;2023-05-01T12:58:12;95351.94;;;18.86;61.31
8501;BME280;4288;48.484;10.024;2023-05-01T13:00:47;95333.00;;;18.86;61.73
8501;BME280;4288;48.484;10.024;2023-05-01T13:03:22;95333.75;;;18.87;61.96
8501;BME280;4288;48.484;10.024;2023-05-01T13:05:52;95335.69;;;18.86;61.69
8501;BME280;4288;48.484;10.024;2023-05-01T13:08:30;95333.75;;;18.87;61.48
8501;BME280;4288;48.484;10.024;2023-05-01T13:11:00;95331.03;;;18.87;61.64
8501;BME280;4288;48.484;10.024;2023-05-01T13:13:28;95331.81;;;18.87;61.76
8501;BME280;4288;48.484;10.024;2023-05-01T13:16:04;95334.53;;;18.87;62.22
8501;BME280;4288;48.484;10.024;2023-05-01T13:18:41;95331.81;;;18.87;61.99
8501;BME280;4288;48.484;10.024;2023-05-01T13:21:10;95333.75;;;18.87;62.04
8501;BME280;4288;48.484;10.024;2023-05-01T13:23:39;95333.00;;;18.86;61.99
8501;BME280;4288;48.484;10.024;2023-05-01T13:26:07;95337.22;;;18.87;62.19